Littleton, CO (80122)

10:50 AM MST on December 22, 2014 (GMT -0700)
Forest Park | Change Station
CLOSE
Current Station
Personal Weather Station
Location: Centennial, CO
Elevation: 5610 ft
Nearby Weather Stations

Elev 5610 ft 39.58 °N, 104.96 °W | Updated 11 seconds ago

Mostly Cloudy
Mostly Cloudy
34.6 °F
Feels Like 35 °F
N
0.0
Wind Variable Wind from East
Gusts 0.0 mph

Today
High -- | Low -- °F
--% Chance of Precip.
Yesterday
High -- | Low -- °F
Precip. -- in
7:17 AM 4:39 PM
New Moon, 1% visible
Pressure 29.75 in
Visibility 10.0 miles
Clouds Few 7000 ft
Mostly Cloudy 11000 ft
Mostly Cloudy 20000 ft
Windchill 35 °F
Dew Point 31 °F
Humidity 86%
Rainfall 0.00 in
Snow Depth Not available.
UV 1 out of 12
Pollen .10 out of 12
Air Quality Not available.
Flu Activity Not available.
METAR KAPA 221653Z COR 27006KT 10SM FEW070 BKN110 BKN200 00/M04 A2972 RMK AO2 SLP075 SHSN OMTNS DSNT W-N T00001039

More Conditions Fewer Conditions

Pressure 29.75 in
Visibility 10.0 miles
Clouds Few 7000 ft
Mostly Cloudy 11000 ft
Mostly Cloudy 20000 ft
Windchill 35 °F
Dew Point 31 °F
Humidity 86%
Rainfall 0.00 in
Snow Depth Not available.
UV 1 out of 12
Pollen .10 out of 12
Air Quality Not available.
Flu Activity Not available.
METAR KAPA 221653Z COR 27006KT 10SM FEW070 BKN110 BKN200 00/M04 A2972 RMK AO2 SLP075 SHSN OMTNS DSNT W-N T00001039

More Conditions Fewer Conditions

10-Day Weather Forecast

Almanac

Astronomy

Dec. 22, 2014 Rise Set
Actual Time
Civil Twilight
Nautical Twilight
Astronomical Twilight
Moon
Length of Visible Light
Length of Day
Tomorrow will be .
, % of the Moon is Illuminated

Today's Extremes

State Highs State Lows

Community

WunderPhotos

Upload Photos

1,779,655 photos uploaded!

WunderBlogs® & News

Nearby

Air Quality

  Air Quality AQ Index Pollutant
Not available.

Snow Depth

Station Depth Elevation

Earthquake Activity

City Distance Mag. Time & Date
Minimum magnitude displayed is 2.5.

Coastal Water Temperatures

Place Temperature

Nearby Weather Stations